Time;durP1;ratioP1;P1;durP2;ratioP2;P2;SDS_P1;SDS_P2;PMS_P1;PMS_P2;Temp;Humidity;BMP_temperature;BMP_pressure;BME280_temperature;BME280_humidity;BME280_pressure;Samples;Min_cycle;Max_cycle;Signal;HPM_P1;HPM_P2
2021/11/13 00:02:02;;;;;;;14.33;9.63;;;7.10;1.00;;;;;;5012232;28;20211;-58
2021/11/13 00:04:28;;;;;;;13.53;8.87;;;7.20;1.00;;;;;;5013104;28;20242;-59
2021/11/13 00:06:55;;;;;;;14.80;10.17;;;7.20;1.00;;;;;;5012317;28;20210;-59
2021/11/13 00:09:23;;;;;;;13.33;8.97;;;7.20;1.00;;;;;;5012064;28;20211;-57
2021/11/13 00:11:50;;;;;;;14.50;9.87;;;7.20;1.00;;;;;;5012956;28;20570;-59
2021/11/13 00:14:17;;;;;;;14.37;10.00;;;7.10;1.00;;;;;;5013182;28;20277;-58
2021/11/13 00:16:44;;;;;;;15.27;9.50;;;7.10;1.00;;;;;;5011775;28;20207;-58
2021/11/13 00:19:11;;;;;;;16.70;10.40;;;7.20;1.00;;;;;;5011657;28;20653;-57
2021/11/13 00:21:38;;;;;;;13.57;9.87;;;7.20;1.00;;;;;;5012921;28;20202;-57
2021/11/13 00:24:06;;;;;;;16.10;9.73;;;7.20;1.00;;;;;;5012489;28;20628;-59
2021/11/13 00:26:34;;;;;;;16.73;9.90;;;7.10;1.00;;;;;;5011969;28;20207;-57
2021/11/13 00:29:01;;;;;;;13.63;9.60;;;7.10;1.00;;;;;;5012250;28;20207;-59
2021/11/13 00:31:27;;;;;;;15.00;9.70;;;7.20;1.00;;;;;;5012791;28;20284;-59
2021/11/13 00:33:54;;;;;;;14.30;9.53;;;7.10;1.00;;;;;;5011572;28;20227;-57
2021/11/13 00:36:21;;;;;;;16.50;10.93;;;7.10;1.00;;;;;;5012362;28;20278;-59
2021/11/13 00:38:47;;;;;;;16.63;9.93;;;7.20;1.00;;;;;;5011765;28;20583;-59
2021/11/13 00:41:14;;;;;;;14.57;9.47;;;7.20;1.00;;;;;;5012503;28;20206;-59
2021/11/13 00:43:42;;;;;;;17.13;10.03;;;7.20;1.00;;;;;;5012378;28;20354;-59
2021/11/13 00:46:09;;;;;;;14.37;9.67;;;7.20;1.00;;;;;;5011216;28;20257;-59
2021/11/13 00:48:36;;;;;;;15.37;9.97;;;7.20;1.00;;;;;;5012422;28;20229;-59
2021/11/13 00:51:03;;;;;;;14.90;9.53;;;7.20;1.00;;;;;;5012326;28;20207;-59
2021/11/13 00:53:32;;;;;;;13.17;8.83;;;7.20;1.00;;;;;;5011605;28;20304;-58
2021/11/13 00:55:59;;;;;;;15.53;9.47;;;7.20;1.00;;;;;;5011444;28;20298;-59
2021/11/13 00:58:26;;;;;;;13.17;9.43;;;7.20;1.00;;;;;;5012120;28;20227;-59
2021/11/13 01:00:54;;;;;;;14.70;9.63;;;7.20;1.00;;;;;;5012138;28;20250;-57
2021/11/13 01:03:21;;;;;;;12.80;9.67;;;7.20;1.00;;;;;;5011682;28;20227;-59
2021/11/13 01:05:48;;;;;;;12.77;9.80;;;7.20;1.00;;;;;;5011435;28;20211;-58
2021/11/13 01:08:14;;;;;;;15.20;10.00;;;7.30;1.00;;;;;;5012441;28;20203;-59
2021/11/13 01:10:41;;;;;;;14.77;9.20;;;7.30;1.00;;;;;;5011326;28;20251;-59
2021/11/13 01:13:08;;;;;;;13.97;9.00;;;7.30;1.00;;;;;;5011781;28;20227;-59
2021/11/13 01:15:34;;;;;;;14.10;9.43;;;7.30;1.00;;;;;;5011377;28;20264;-59
2021/11/13 01:18:03;;;;;;;13.93;8.90;;;7.30;1.00;;;;;;5012315;28;20223;-59
2021/11/13 01:20:30;;;;;;;14.97;9.47;;;7.30;1.00;;;;;;5011567;28;20249;-58
2021/11/13 01:22:58;;;;;;;15.50;10.67;;;7.30;1.00;;;;;;5011395;28;20301;-59
2021/11/13 01:25:24;;;;;;;14.87;9.17;;;7.30;1.00;;;;;;5011511;28;20280;-57
2021/11/13 01:27:51;;;;;;;12.97;9.37;;;7.30;1.00;;;;;;5011296;28;20553;-59
2021/11/13 01:30:18;;;;;;;18.53;9.40;;;7.30;1.00;;;;;;5013558;28;20207;-56
2021/11/13 01:32:45;;;;;;;14.10;8.47;;;7.30;1.00;;;;;;5015174;28;20207;-58
2021/11/13 01:35:14;;;;;;;15.10;9.43;;;7.30;1.00;;;;;;5015822;28;20203;-59
2021/11/13 01:37:41;;;;;;;12.27;8.53;;;7.40;1.00;;;;;;5015274;28;20635;-58
2021/11/13 01:40:12;;;;;;;13.53;9.53;;;7.40;1.00;;;;;;5015209;28;20229;-58
2021/11/13 01:42:38;;;;;;;12.87;9.43;;;7.40;1.00;;;;;;5015981;28;20196;-58
2021/11/13 01:45:06;;;;;;;15.03;9.20;;;7.40;1.00;;;;;;5015365;28;20285;-58
2021/11/13 01:47:33;;;;;;;22.90;10.60;;;7.40;1.00;;;;;;5014119;28;20766;-58
2021/11/13 01:50:00;;;;;;;11.77;8.57;;;7.40;1.00;;;;;;5014585;28;20264;-59
2021/11/13 01:52:28;;;;;;;15.17;9.50;;;7.50;1.00;;;;;;5015836;28;20622;-59
2021/11/13 01:54:55;;;;;;;15.57;8.80;;;7.50;1.00;;;;;;5014008;28;20254;-59
2021/11/13 01:57:23;;;;;;;13.53;8.70;;;7.50;1.00;;;;;;5015528;28;20734;-58
2021/11/13 01:59:51;;;;;;;13.50;8.97;;;7.50;1.00;;;;;;5014800;28;20235;-56
2021/11/13 02:02:19;;;;;;;13.00;9.30;;;7.50;1.00;;;;;;5015659;28;20256;-59
2021/11/13 02:04:46;;;;;;;13.87;9.43;;;7.50;1.00;;;;;;5014615;28;20234;-57
2021/11/13 02:07:13;;;;;;;14.70;9.30;;;7.50;1.00;;;;;;5013984;28;20213;-58
2021/11/13 02:09:41;;;;;;;13.77;9.00;;;7.50;1.00;;;;;;5014966;28;20683;-59
2021/11/13 02:12:08;;;;;;;13.37;9.23;;;7.50;1.00;;;;;;5015160;28;20238;-59
2021/11/13 02:14:35;;;;;;;13.60;9.17;;;7.60;1.00;;;;;;5014292;28;20226;-59
2021/11/13 02:17:02;;;;;;;13.83;8.97;;;7.60;1.00;;;;;;5014389;28;20211;-55
2021/11/13 02:19:29;;;;;;;12.20;8.30;;;7.60;1.00;;;;;;5015254;28;20317;-59
2021/11/13 02:21:58;;;;;;;12.90;8.60;;;7.60;1.00;;;;;;5014083;28;20207;-57
2021/11/13 02:24:25;;;;;;;14.47;8.97;;;7.70;1.00;;;;;;5015296;28;20242;-58
2021/11/13 02:26:53;;;;;;;18.47;9.37;;;7.70;1.00;;;;;;5013949;28;20285;-59
2021/11/13 02:29:19;;;;;;;15.40;9.40;;;7.70;1.00;;;;;;5015055;28;20730;-59
2021/11/13 02:31:46;;;;;;;12.33;9.20;;;7.70;1.00;;;;;;5013868;28;20211;-59
2021/11/13 02:34:13;;;;;;;14.60;9.50;;;7.70;1.00;;;;;;5014351;28;20658;-59
2021/11/13 02:36:41;;;;;;;16.40;8.30;;;7.70;1.00;;;;;;5014134;28;20210;-58
2021/11/13 02:39:12;;;;;;;15.57;9.70;;;7.70;1.00;;;;;;5013393;28;20277;-59
2021/11/13 02:41:42;;;;;;;14.47;9.60;;;7.70;1.00;;;;;;5013255;28;20751;-59
2021/11/13 02:44:11;;;;;;;14.10;9.07;;;7.70;1.00;;;;;;5014594;28;20318;-59
2021/11/13 02:46:38;;;;;;;15.97;9.70;;;7.70;1.00;;;;;;5013338;28;20238;-59
2021/11/13 02:49:06;;;;;;;12.13;9.03;;;7.70;1.00;;;;;;5013432;28;20219;-57
2021/11/13 02:51:32;;;;;;;19.93;10.03;;;7.70;1.00;;;;;;5014572;28;20273;-59
2021/11/13 02:54:00;;;;;;;14.97;8.80;;;7.70;1.00;;;;;;5013863;28;20226;-59
2021/11/13 02:56:28;;;;;;;15.17;10.50;;;7.70;1.00;;;;;;5014164;28;20266;-58
2021/11/13 02:58:55;;;;;;;16.13;10.23;;;7.70;1.00;;;;;;5013452;28;20227;-56
2021/11/13 03:01:24;;;;;;;16.70;10.43;;;7.60;1.00;;;;;;5013833;28;20222;-56
2021/11/13 03:03:56;;;;;;;15.00;9.87;;;7.60;1.00;;;;;;5014061;28;20289;-59
2021/11/13 03:06:23;;;;;;;15.63;9.40;;;7.60;1.00;;;;;;5013868;28;20226;-59
2021/11/13 03:08:53;;;;;;;14.67;9.30;;;7.60;1.00;;;;;;5013932;28;20203;-59
2021/11/13 03:11:21;;;;;;;17.20;10.43;;;7.50;1.00;;;;;;5014145;28;20211;-57
2021/11/13 03:13:52;;;;;;;16.17;9.57;;;7.60;1.00;;;;;;5014061;28;20227;-59
2021/11/13 03:16:20;;;;;;;19.30;11.00;;;7.50;1.00;;;;;;5013385;28;20828;-59
2021/11/13 03:18:47;;;;;;;15.27;9.97;;;7.50;1.00;;;;;;5012977;28;20281;-59
2021/11/13 03:21:14;;;;;;;17.60;10.80;;;7.40;1.00;;;;;;5013618;28;20211;-59
2021/11/13 03:23:43;;;;;;;20.93;10.13;;;7.40;1.00;;;;;;5013923;28;20238;-59
2021/11/13 03:26:14;;;;;;;17.67;10.93;;;7.30;1.00;;;;;;5012797;28;20242;-59
2021/11/13 03:28:45;;;;;;;15.73;10.00;;;7.20;13.90;;;;;;5012991;28;20214;-59
2021/11/13 03:31:13;;;;;;;18.00;11.07;;;7.20;90.40;;;;;;5014022;28;20278;-57
2021/11/13 03:33:41;;;;;;;19.67;11.53;;;7.00;99.90;;;;;;5013174;28;20239;-59
2021/11/13 03:36:09;;;;;;;19.10;11.57;;;7.00;99.90;;;;;;5013095;28;20203;-59
2021/11/13 03:38:37;;;;;;;17.40;12.03;;;7.00;99.90;;;;;;5012688;28;20382;-58
2021/11/13 03:41:05;;;;;;;18.10;12.20;;;6.90;99.90;;;;;;5012775;28;20265;-57
2021/11/13 03:43:34;;;;;;;21.17;11.97;;;6.80;1.00;;;;;;5012716;28;20231;-59
2021/11/13 03:46:00;;;;;;;22.70;12.77;;;6.80;1.00;;;;;;5012748;28;20702;-56
2021/11/13 03:48:29;;;;;;;24.37;14.07;;;6.70;1.00;;;;;;5013264;28;20203;-59
2021/11/13 03:50:55;;;;;;;23.57;13.70;;;6.70;2.00;;;;;;5013319;28;20211;-59
2021/11/13 03:53:22;;;;;;;23.53;14.10;;;6.70;99.90;;;;;;5012108;28;20231;-57
2021/11/13 03:55:49;;;;;;;22.93;14.20;;;6.70;99.90;;;;;;5011385;28;20225;-59
2021/11/13 03:58:16;;;;;;;23.83;14.10;;;6.60;99.90;;;;;;5013429;28;20214;-56
2021/11/13 04:00:43;;;;;;;24.80;13.97;;;6.70;99.90;;;;;;5012893;28;20260;-58
2021/11/13 04:03:09;;;;;;;21.30;13.73;;;6.60;99.90;;;;;;5013069;28;20659;-59
2021/11/13 04:05:37;;;;;;;22.83;12.83;;;6.60;99.90;;;;;;5012232;28;20243;-58
2021/11/13 04:08:05;;;;;;;22.87;14.13;;;6.70;99.90;;;;;;5013124;28;20253;-59
2021/11/13 04:10:32;;;;;;;27.30;14.57;;;6.70;1.00;;;;;;5012963;28;20233;-58
2021/11/13 04:12:59;;;;;;;29.97;14.80;;;6.60;1.00;;;;;;5012160;28;20285;-58
2021/11/13 04:15:25;;;;;;;26.93;15.03;;;6.70;1.00;;;;;;5011987;28;20727;-57
2021/11/13 04:17:52;;;;;;;25.70;13.70;;;6.70;1.00;;;;;;5012984;28;20214;-53
2021/11/13 04:20:19;;;;;;;27.80;15.03;;;6.70;1.00;;;;;;5011788;28;20712;-53
2021/11/13 04:22:49;;;;;;;26.33;15.33;;;6.60;1.00;;;;;;5012168;28;20552;-56
2021/11/13 04:25:16;;;;;;;30.97;15.83;;;6.70;1.00;;;;;;5012457;28;20745;-54
2021/11/13 04:27:43;;;;;;;28.17;15.90;;;6.70;20.40;;;;;;5012681;28;20207;-57
2021/11/13 04:30:12;;;;;;;26.87;15.97;;;6.70;90.40;;;;;;5012160;28;20261;-58
2021/11/13 04:32:39;;;;;;;31.57;16.83;;;6.70;99.90;;;;;;5011697;28;20698;-56
2021/11/13 04:35:18;;;;;;;26.90;16.40;;;6.70;99.90;;;;;;5012184;28;20226;-52
2021/11/13 04:37:49;;;;;;;28.83;16.27;;;6.70;99.90;;;;;;5011906;28;20701;-55
2021/11/13 04:40:17;;;;;;;30.20;15.53;;;6.80;1.00;;;;;;5010888;28;20227;-54
2021/11/13 04:42:44;;;;;;;31.23;16.53;;;6.70;1.00;;;;;;5012136;28;20211;-57
2021/11/13 04:45:11;;;;;;;29.87;16.07;;;6.80;1.00;;;;;;5011665;28;20203;-52
2021/11/13 04:47:38;;;;;;;24.57;15.03;;;6.80;1.00;;;;;;5011575;28;20241;-56
2021/11/13 04:50:06;;;;;;;24.07;15.63;;;6.80;1.00;;;;;;5011446;28;20580;-51
2021/11/13 04:52:33;;;;;;;27.33;15.23;;;6.90;1.00;;;;;;5012865;28;20211;-53
2021/11/13 04:55:02;;;;;;;26.60;15.17;;;6.90;1.00;;;;;;5011143;28;20274;-55
2021/11/13 04:57:29;;;;;;;27.53;16.23;;;6.90;1.00;;;;;;5012667;28;20211;-56
2021/11/13 04:59:55;;;;;;;27.80;16.00;;;6.90;1.00;;;;;;5011469;28;20297;-59
2021/11/13 05:02:22;;;;;;;24.23;15.00;;;6.90;1.00;;;;;;5011794;28;20745;-58
2021/11/13 05:04:54;;;;;;;26.40;14.17;;;6.90;1.00;;;;;;5010968;28;20300;-57
2021/11/13 05:07:21;;;;;;;22.57;14.37;;;6.90;1.00;;;;;;5011890;28;20210;-55
2021/11/13 05:09:48;;;;;;;22.77;12.93;;;6.90;1.00;;;;;;5012496;28;20261;-58
2021/11/13 05:12:16;;;;;;;22.70;14.10;;;6.90;1.00;;;;;;5011324;28;20672;-59
2021/11/13 05:14:43;;;;;;;20.60;13.90;;;6.90;1.00;;;;;;5010960;28;20267;-58
2021/11/13 05:17:11;;;;;;;24.17;13.53;;;6.90;1.00;;;;;;5012105;28;20690;-59
2021/11/13 05:19:37;;;;;;;18.07;12.50;;;6.90;1.00;;;;;;5011706;28;20257;-59
2021/11/13 05:22:04;;;;;;;17.63;11.00;;;7.00;1.00;;;;;;5011511;28;20738;-58
2021/11/13 05:24:31;;;;;;;20.23;12.77;;;7.00;1.00;;;;;;5011113;28;20234;-59
2021/11/13 05:26:58;;;;;;;21.50;13.03;;;7.00;1.00;;;;;;5012247;28;20284;-59
2021/11/13 05:29:26;;;;;;;18.73;11.63;;;7.00;1.00;;;;;;5011045;28;20745;-58
2021/11/13 05:31:52;;;;;;;18.37;12.20;;;7.00;1.00;;;;;;5012018;28;20906;-57
2021/11/13 05:34:19;;;;;;;20.33;11.83;;;7.00;1.00;;;;;;5011260;28;20231;-57
2021/11/13 05:36:46;;;;;;;20.53;12.80;;;7.00;1.00;;;;;;5011641;28;20210;-59
2021/11/13 05:39:14;;;;;;;19.60;12.37;;;7.00;1.00;;;;;;5011006;28;20254;-57
2021/11/13 05:41:41;;;;;;;20.37;12.70;;;7.10;1.00;;;;;;5010738;28;20217;-56
2021/11/13 05:44:08;;;;;;;18.40;11.33;;;7.10;1.00;;;;;;5011710;28;20234;-57
2021/11/13 05:46:36;;;;;;;19.40;12.00;;;7.10;1.00;;;;;;5011319;28;20695;-59
2021/11/13 05:49:03;;;;;;;21.50;12.57;;;7.10;1.00;;;;;;5011670;28;20327;-58
2021/11/13 05:51:30;;;;;;;21.40;12.27;;;7.10;1.00;;;;;;5011645;28;20672;-55
2021/11/13 05:53:57;;;;;;;19.37;12.40;;;7.10;1.00;;;;;;5011853;28;20238;-57
2021/11/13 05:56:23;;;;;;;19.07;12.37;;;7.00;1.00;;;;;;5010759;28;20257;-58
2021/11/13 05:58:50;;;;;;;19.70;12.23;;;7.00;1.00;;;;;;5011441;28;20739;-58
2021/11/13 06:01:17;;;;;;;21.40;12.57;;;7.00;1.00;;;;;;5011291;28;20211;-59
2021/11/13 06:03:45;;;;;;;21.10;12.90;;;7.00;1.00;;;;;;5011417;28;20733;-58
2021/11/13 06:06:11;;;;;;;19.70;11.57;;;7.00;1.00;;;;;;5010745;28;20214;-58
2021/11/13 06:08:38;;;;;;;20.67;12.13;;;7.00;1.00;;;;;;5010749;28;20207;-56
2021/11/13 06:11:05;;;;;;;21.27;13.13;;;7.00;1.00;;;;;;5011582;28;20214;-58
2021/11/13 06:13:31;;;;;;;17.90;11.53;;;7.10;1.00;;;;;;5011094;28;20239;-58
2021/11/13 06:15:58;;;;;;;20.57;13.00;;;7.10;1.00;;;;;;5011075;28;20207;-56
2021/11/13 06:18:24;;;;;;;21.87;13.23;;;7.00;1.00;;;;;;5013528;28;20265;-58
2021/11/13 06:20:52;;;;;;;21.00;12.67;;;7.00;1.00;;;;;;5015523;28;20258;-58
2021/11/13 06:23:19;;;;;;;18.63;11.97;;;7.00;1.00;;;;;;5014260;28;20285;-58
2021/11/13 06:25:46;;;;;;;20.60;12.63;;;7.00;1.00;;;;;;5014459;28;20657;-58
2021/11/13 06:28:12;;;;;;;20.97;12.37;;;7.00;1.00;;;;;;5014779;28;20217;-58
2021/11/13 06:30:39;;;;;;;19.50;12.10;;;7.00;1.00;;;;;;5015175;28;20241;-57
2021/11/13 06:33:06;;;;;;;18.70;11.83;;;6.90;1.00;;;;;;5014232;28;20231;-58
2021/11/13 06:35:32;;;;;;;21.70;12.47;;;7.00;1.00;;;;;;5013859;28;20207;-57
2021/11/13 06:38:00;;;;;;;18.37;12.20;;;7.00;1.00;;;;;;5014790;28;20269;-59
2021/11/13 06:40:27;;;;;;;18.93;11.60;;;7.00;1.00;;;;;;5013260;28;20277;-58
2021/11/13 06:42:54;;;;;;;19.60;12.60;;;6.90;1.00;;;;;;5014401;28;20649;-55
2021/11/13 06:45:21;;;;;;;17.97;11.80;;;6.90;1.00;;;;;;5014631;28;20203;-55
2021/11/13 06:47:47;;;;;;;17.83;11.90;;;6.80;1.00;;;;;;5013345;28;20261;-54
2021/11/13 06:50:14;;;;;;;20.40;12.97;;;6.80;1.00;;;;;;5014674;28;20206;-57
2021/11/13 06:52:41;;;;;;;20.50;12.53;;;6.80;1.00;;;;;;5013550;28;20207;-58
2021/11/13 06:55:11;;;;;;;18.87;11.93;;;6.80;1.00;;;;;;5013571;28;20661;-58
2021/11/13 06:57:38;;;;;;;18.93;12.17;;;6.80;1.00;;;;;;5014600;28;20214;-57
2021/11/13 07:00:09;;;;;;;17.27;11.20;;;6.90;1.00;;;;;;5013723;28;20226;-58
2021/11/13 07:02:35;;;;;;;18.40;12.90;;;6.80;1.00;;;;;;5013625;28;20738;-58
2021/11/13 07:05:02;;;;;;;19.83;12.77;;;6.90;1.00;;;;;;5014133;28;20301;-58
2021/11/13 07:07:32;;;;;;;19.07;12.93;;;6.80;1.00;;;;;;5013936;28;20288;-59
2021/11/13 07:09:59;;;;;;;19.07;12.90;;;6.90;1.00;;;;;;5014341;28;20290;-57
2021/11/13 07:12:27;;;;;;;20.23;12.10;;;6.90;1.00;;;;;;5013657;28;20203;-56
2021/11/13 07:14:53;;;;;;;21.47;13.43;;;6.90;1.00;;;;;;5013682;28;20649;-59
2021/11/13 07:17:20;;;;;;;21.60;14.00;;;6.90;1.00;;;;;;5013496;28;20238;-55
2021/11/13 07:19:47;;;;;;;24.50;15.40;;;6.90;1.00;;;;;;5013824;28;20223;-58
2021/11/13 07:22:14;;;;;;;22.53;15.13;;;6.90;1.00;;;;;;5013608;28;20269;-59
2021/11/13 07:24:41;;;;;;;22.67;14.00;;;6.90;1.00;;;;;;5013481;28;20782;-58
2021/11/13 07:27:09;;;;;;;25.27;15.60;;;6.90;1.00;;;;;;5013235;28;20211;-59
2021/11/13 07:29:44;;;;;;;22.70;15.10;;;6.90;1.00;;;;;;5013795;28;20213;-56
2021/11/13 07:32:10;;;;;;;20.37;14.80;;;6.90;1.00;;;;;;5015137;28;20238;-58
2021/11/13 07:34:37;;;;;;;24.00;14.00;;;7.00;1.00;;;;;;5013754;28;20258;-59
2021/11/13 07:37:04;;;;;;;20.80;13.77;;;7.00;1.00;;;;;;5013296;28;20215;-57
2021/11/13 07:39:31;;;;;;;20.90;13.53;;;7.00;1.00;;;;;;5013035;28;20272;-55
2021/11/13 07:41:58;;;;;;;21.97;14.23;;;7.00;1.00;;;;;;5013771;28;20715;-58
2021/11/13 07:44:25;;;;;;;21.37;14.20;;;7.00;1.00;;;;;;5012837;28;20269;-57
2021/11/13 07:46:55;;;;;;;23.47;14.80;;;7.00;1.00;;;;;;5012589;28;20211;-59
2021/11/13 07:49:22;;;;;;;22.93;14.93;;;7.10;1.00;;;;;;5013090;28;20211;-58
2021/11/13 07:51:48;;;;;;;19.80;13.67;;;7.10;1.00;;;;;;5013581;28;20203;-59
2021/11/13 07:54:15;;;;;;;23.50;14.20;;;7.10;1.00;;;;;;5012656;28;20711;-57
2021/11/13 07:56:42;;;;;;;23.73;15.17;;;7.10;1.00;;;;;;5009400;28;20211;-58
2021/11/13 07:59:09;;;;;;;25.33;15.00;;;7.10;1.00;;;;;;5013251;28;20211;-59
2021/11/13 08:01:36;;;;;;;22.13;13.87;;;7.20;1.00;;;;;;5012825;28;20604;-60
2021/11/13 08:04:04;;;;;;;22.13;14.57;;;7.10;1.00;;;;;;5012772;28;20265;-60
2021/11/13 08:06:31;;;;;;;27.00;15.33;;;7.20;1.00;;;;;;5011800;28;20266;-60
2021/11/13 08:08:58;;;;;;;21.23;14.77;;;7.20;1.00;;;;;;5013411;28;20606;-60
2021/11/13 08:11:24;;;;;;;23.37;14.13;;;7.20;4.60;;;;;;5012339;28;20210;-60
2021/11/13 08:13:51;;;;;;;22.53;14.20;;;7.30;1.00;;;;;;5012843;28;20285;-60
2021/11/13 08:16:18;;;;;;;26.17;15.03;;;7.30;1.00;;;;;;5011553;28;20211;-60
2021/11/13 08:18:45;;;;;;;21.80;13.80;;;7.30;1.00;;;;;;5012958;28;20741;-60
2021/11/13 08:21:13;;;;;;;20.60;13.67;;;7.40;1.00;;;;;;5012292;28;20300;-60
2021/11/13 08:23:39;;;;;;;22.57;13.30;;;7.40;1.00;;;;;;5011816;28;20223;-60
2021/11/13 08:26:06;;;;;;;20.87;13.63;;;7.40;1.00;;;;;;5012557;28;20282;-60
2021/11/13 08:28:33;;;;;;;21.17;13.73;;;7.40;1.00;;;;;;5012137;28;20609;-60
2021/11/13 08:31:00;;;;;;;23.33;14.40;;;7.40;1.00;;;;;;5012646;28;20203;-60
2021/11/13 08:33:28;;;;;;;20.67;14.03;;;7.50;1.00;;;;;;5011930;28;20235;-56
2021/11/13 08:35:56;;;;;;;22.03;14.90;;;7.60;1.00;;;;;;5012695;28;20230;-54
2021/11/13 08:38:25;;;;;;;20.27;13.93;;;7.60;1.00;;;;;;5012379;28;20207;-56
2021/11/13 08:40:54;;;;;;;20.17;13.97;;;7.60;1.00;;;;;;5010119;28;20635;-59
2021/11/13 08:43:22;;;;;;;21.77;14.73;;;7.60;1.00;;;;;;5011774;28;20315;-58
2021/11/13 08:45:50;;;;;;;23.77;14.50;;;7.70;1.00;;;;;;5011979;28;20219;-59
2021/11/13 08:48:18;;;;;;;22.37;13.83;;;7.70;1.00;;;;;;5002693;28;20209;-58
2021/11/13 08:50:44;;;;;;;23.83;14.50;;;7.80;1.00;;;;;;5018360;28;20199;-59
2021/11/13 08:53:12;;;;;;;21.70;15.43;;;7.80;1.00;;;;;;5012003;28;20226;-58
2021/11/13 08:55:41;;;;;;;20.40;14.30;;;7.80;1.00;;;;;;4994143;28;20211;-59
2021/11/13 08:58:09;;;;;;;22.07;14.27;;;7.80;1.00;;;;;;5011355;28;20219;-61
2021/11/13 09:00:39;;;;;;;21.13;13.80;;;7.80;1.00;;;;;;5012120;28;20239;-61
2021/11/13 09:03:09;;;;;;;18.50;13.47;;;7.90;1.00;;;;;;5012208;28;20286;-60
2021/11/13 09:05:36;;;;;;;19.67;12.67;;;7.90;1.00;;;;;;5011307;28;20681;-61
2021/11/13 09:08:03;;;;;;;17.57;12.33;;;8.00;1.00;;;;;;5010907;28;20673;-61
2021/11/13 09:10:31;;;;;;;19.13;12.77;;;8.00;1.00;;;;;;5011825;28;20210;-61
2021/11/13 09:13:00;;;;;;;17.63;12.27;;;8.00;1.00;;;;;;5011950;28;20233;-61
2021/11/13 09:15:32;;;;;;;17.37;12.30;;;8.10;1.00;;;;;;5011309;28;20299;-61
2021/11/13 09:17:58;;;;;;;19.03;12.37;;;8.10;1.00;;;;;;5010308;28;20205;-61
2021/11/13 09:20:26;;;;;;;16.57;11.80;;;8.20;1.00;;;;;;5011691;28;20224;-59
2021/11/13 09:22:53;;;;;;;16.77;11.90;;;8.20;1.00;;;;;;5011092;28;20215;-58
2021/11/13 09:25:20;;;;;;;17.30;11.80;;;8.20;1.00;;;;;;5011462;28;20222;-57
2021/11/13 09:27:48;;;;;;;17.10;11.83;;;8.30;1.00;;;;;;5010991;28;20254;-59
2021/11/13 09:30:18;;;;;;;19.30;11.60;;;8.30;1.00;;;;;;5011796;28;20210;-61
2021/11/13 09:32:47;;;;;;;16.90;11.73;;;8.40;1.00;;;;;;5011129;28;20271;-62
2021/11/13 09:35:15;;;;;;;16.13;11.90;;;8.50;99.90;;;;;;5010523;28;20273;-62
2021/11/13 09:37:43;;;;;;;14.37;9.60;;;8.50;99.90;;;;;;5010543;28;20219;-62
2021/11/13 09:40:11;;;;;;;13.27;9.67;;;8.50;99.90;;;;;;5012218;28;20271;-62
2021/11/13 09:42:38;;;;;;;12.33;9.13;;;8.60;91.50;;;;;;5011101;28;20210;-61
2021/11/13 09:45:05;;;;;;;13.03;9.30;;;8.60;3.60;;;;;;5011077;28;20231;-60
2021/11/13 09:47:34;;;;;;;12.37;8.87;;;8.70;19.70;;;;;;5011483;28;20210;-57
2021/11/13 09:50:01;;;;;;;13.43;9.63;;;8.70;1.00;;;;;;5010882;28;20218;-58
2021/11/13 09:52:28;;;;;;;11.53;8.37;;;8.80;1.00;;;;;;5015217;28;20210;-58
2021/11/13 09:54:55;;;;;;;10.90;8.73;;;8.90;1.00;;;;;;5015113;28;20233;-59
2021/11/13 09:57:22;;;;;;;11.63;9.20;;;8.90;1.00;;;;;;5014809;28;20214;-59
2021/11/13 09:59:49;;;;;;;11.13;8.83;;;9.00;1.00;;;;;;5014621;28;20676;-57
2021/11/13 10:02:16;;;;;;;11.77;8.00;;;8.90;99.90;;;;;;5014465;28;20280;-58
2021/11/13 10:04:45;;;;;;;10.40;8.33;;;9.00;99.90;;;;;;5014530;28;20323;-54
2021/11/13 10:07:12;;;;;;;9.10;7.60;;;8.90;99.90;;;;;;5015021;28;20216;-57
2021/11/13 10:09:39;;;;;;;10.87;7.70;;;9.00;99.90;;;;;;5014587;28;20217;-55
2021/11/13 10:12:07;;;;;;;10.63;7.87;;;9.00;99.90;;;;;;5014334;28;20217;-60
2021/11/13 10:14:36;;;;;;;9.03;7.43;;;8.90;99.90;;;;;;5014684;28;20236;-57
2021/11/13 10:17:16;;;;;;;10.87;7.80;;;8.90;99.90;;;;;;5014021;28;20209;-59
2021/11/13 10:19:44;;;;;;;9.50;7.90;;;8.80;99.90;;;;;;5014682;28;20296;-60
2021/11/13 10:22:11;;;;;;;10.87;8.63;;;8.90;99.90;;;;;;5014587;28;20224;-57
2021/11/13 10:24:45;;;;;;;10.43;9.33;;;8.80;99.90;;;;;;5014301;28;20241;-55
2021/11/13 10:27:12;;;;;;;11.13;9.00;;;8.80;99.90;;;;;;5014932;28;20214;-60
2021/11/13 10:29:39;;;;;;;10.50;9.23;;;8.80;99.90;;;;;;5012884;28;20262;-60
2021/11/13 10:32:08;;;;;;;12.17;9.30;;;8.80;99.90;;;;;;5014888;28;20245;-59
2021/11/13 10:34:38;;;;;;;11.50;9.10;;;8.90;1.00;;;;;;5014165;28;20252;-59
2021/11/13 10:37:09;;;;;;;12.23;9.60;;;8.90;1.00;;;;;;5013578;28;20207;-54
2021/11/13 10:39:38;;;;;;;10.67;9.00;;;9.00;1.00;;;;;;5013680;28;20209;-57
2021/11/13 10:42:07;;;;;;;13.60;9.53;;;9.00;1.00;;;;;;5013588;28;20237;-59
2021/11/13 10:44:36;;;;;;;10.63;9.53;;;9.00;99.90;;;;;;5013521;28;20238;-58
2021/11/13 10:47:10;;;;;;;12.53;9.57;;;9.20;1.00;;;;;;5013598;28;20715;-59
2021/11/13 10:49:37;;;;;;;12.87;9.60;;;9.20;99.90;;;;;;5013917;28;20349;-58
2021/11/13 10:52:08;;;;;;;13.00;9.33;;;9.30;99.90;;;;;;5014352;28;20207;-58
2021/11/13 10:54:36;;;;;;;11.90;8.83;;;9.30;99.90;;;;;;5013016;28;20237;-60
2021/11/13 10:57:05;;;;;;;10.47;8.13;;;9.40;99.90;;;;;;5013459;28;20210;-59
2021/11/13 10:59:34;;;;;;;10.70;8.87;;;9.40;99.90;;;;;;5012662;28;20240;-55
2021/11/13 11:02:03;;;;;;;11.63;9.57;;;9.30;80.60;;;;;;5012149;28;20254;-58
2021/11/13 11:04:32;;;;;;;11.83;8.37;;;9.40;53.60;;;;;;5013189;28;20227;-57
2021/11/13 11:07:06;;;;;;;8.87;7.97;;;9.30;17.00;;;;;;5013852;28;20214;-58
2021/11/13 11:09:36;;;;;;;10.57;8.33;;;9.30;21.80;;;;;;5014125;28;20583;-63
2021/11/13 11:12:06;;;;;;;10.57;9.43;;;9.30;24.40;;;;;;5014354;28;20208;-62
2021/11/13 11:14:34;;;;;;;11.23;9.87;;;9.30;1.00;;;;;;5013860;28;20255;-63
2021/11/13 11:17:03;;;;;;;10.87;9.13;;;9.30;1.00;;;;;;5013684;28;20221;-63
2021/11/13 11:19:31;;;;;;;14.47;9.83;;;9.30;1.00;;;;;;5014464;28;20211;-63
2021/11/13 11:22:00;;;;;;;13.87;10.33;;;9.20;38.20;;;;;;5014394;28;20226;-61
2021/11/13 11:24:31;;;;;;;12.40;10.13;;;9.20;39.40;;;;;;5014402;28;20607;-62
2021/11/13 11:27:06;;;;;;;12.60;10.50;;;9.20;78.40;;;;;;5014881;28;20621;-62
2021/11/13 11:29:35;;;;;;;12.40;10.53;;;9.20;99.90;;;;;;5014706;28;20236;-60
2021/11/13 11:32:06;;;;;;;11.33;10.07;;;9.20;99.90;;;;;;5014336;28;20738;-60
2021/11/13 11:34:36;;;;;;;12.73;10.63;;;9.20;99.90;;;;;;5013865;28;20258;-60
2021/11/13 11:37:09;;;;;;;14.20;10.93;;;9.20;99.90;;;;;;5014387;28;20253;-61
2021/11/13 11:39:37;;;;;;;14.83;10.40;;;9.20;99.90;;;;;;5014140;28;20214;-63
2021/11/13 11:42:06;;;;;;;14.97;10.57;;;9.20;99.90;;;;;;5013783;28;20223;-62
2021/11/13 11:44:35;;;;;;;14.23;11.60;;;9.20;99.90;;;;;;5013279;28;20589;-63
2021/11/13 11:47:02;;;;;;;14.00;10.53;;;9.20;99.90;;;;;;5013905;28;20218;-63
2021/11/13 11:49:30;;;;;;;11.87;10.17;;;9.30;99.90;;;;;;5013821;28;20674;-56
2021/11/13 11:51:57;;;;;;;13.13;10.80;;;9.30;82.50;;;;;;5013670;28;20255;-60
2021/11/13 11:54:23;;;;;;;13.33;9.70;;;9.40;14.10;;;;;;5013557;28;20230;-60
2021/11/13 11:56:54;;;;;;;12.43;9.20;;;9.30;1.00;;;;;;4996043;28;20208;-63
2021/11/13 11:59:23;;;;;;;11.70;9.63;;;9.40;1.00;;;;;;5013664;28;20248;-63
2021/11/13 12:01:50;;;;;;;10.50;9.27;;;9.40;1.00;;;;;;5013486;28;20284;-63
2021/11/13 12:04:19;;;;;;;11.07;8.73;;;9.40;1.00;;;;;;5013431;28;20226;-63
2021/11/13 12:06:50;;;;;;;13.57;8.60;;;9.40;1.00;;;;;;5013151;28;20210;-63
2021/11/13 12:09:18;;;;;;;10.77;9.00;;;9.30;1.00;;;;;;5013384;28;20218;-61
2021/11/13 12:11:45;;;;;;;13.87;10.63;;;9.30;1.00;;;;;;5013384;28;20246;-63
2021/11/13 12:14:36;;;;;;;10.90;9.70;;;9.30;1.00;;;;;;5012664;28;20279;-63
2021/11/13 12:17:35;;;;;;;10.87;9.43;;;9.20;1.00;;;;;;5013227;28;20211;-62
2021/11/13 12:20:33;;;;;;;12.40;10.40;;;9.10;1.00;;;;;;5013176;28;20690;-61
2021/11/13 12:23:26;;;;;;;12.80;9.70;;;9.10;1.00;;;;;;5013214;28;20233;-62
2021/11/13 12:26:00;;;;;;;13.00;10.17;;;9.20;1.00;;;;;;5013080;28;20242;-56
2021/11/13 12:28:27;;;;;;;11.77;9.53;;;9.20;1.00;;;;;;5013751;28;20285;-58
2021/11/13 12:31:09;;;;;;;12.10;9.67;;;9.10;1.00;;;;;;5013177;28;20578;-59
2021/11/13 12:34:11;;;;;;;11.07;9.83;;;9.10;1.00;;;;;;5013047;28;20237;-61
2021/11/13 12:36:50;;;;;;;11.97;9.73;;;9.10;1.00;;;;;;5012699;28;20304;-62
2021/11/13 12:39:18;;;;;;;12.10;9.80;;;9.20;1.00;;;;;;5013055;28;20284;-59
2021/11/13 12:41:48;;;;;;;11.73;9.90;;;9.20;1.00;;;;;;5012940;28;20226;-61
2021/11/13 12:44:20;;;;;;;13.33;9.70;;;9.30;1.00;;;;;;5012907;28;20223;-61
2021/11/13 12:46:50;;;;;;;14.73;11.20;;;9.10;1.00;;;;;;5012375;28;20212;-58
2021/11/13 12:49:40;;;;;;;11.67;10.30;;;9.00;1.00;;;;;;5013031;28;20305;-62
2021/11/13 12:52:16;;;;;;;12.40;9.80;;;9.00;99.90;;;;;;5012732;28;20214;-61
2021/11/13 12:55:00;;;;;;;11.43;9.53;;;9.10;99.90;;;;;;5012099;28;20227;-62